Terminal Aerodrome Forecast
Issued by NWS Omaha/Valley, NE

Home | Current Version | Previous Version | Text Only | Print | Product List | Glossary Off
Versions: 1 2 3 4 5 6 7 8 9 10 11 12 13 14 15 16 17 18 19 20 21 22 23 24 25 26 27 28 29 30 31 32 33 34 35 36

000
FTUS43 KOAX 212056 AAA
TAFOFK
TAF AMD
KOFK 212056Z 2121/2218 17012KT P6SM BKN100
     FM212300 18010KT P6SM BKN015
     FM220300 19010KT 4SM BR BKN008
      TEMPO 2208/2212 1SM BR SCT002 BKN005=

USA.gov is the U.S. government's official web portal to all federal, state and local government web resources and services.